createdAt,value
2018-07-07T00:00:05.577Z,0.00
2018-07-07T00:01:05.563Z,0.00
2018-07-07T00:02:05.581Z,0.00
2018-07-07T00:03:05.591Z,0.00
2018-07-07T00:04:05.560Z,0.00
2018-07-07T00:05:05.520Z,0.00
2018-07-07T00:06:05.512Z,0.00
2018-07-07T00:07:05.501Z,0.00
2018-07-07T00:08:05.491Z,0.00
2018-07-07T00:09:05.492Z,0.00
2018-07-07T00:10:05.484Z,0.00
2018-07-07T00:11:05.468Z,0.00
2018-07-07T00:12:05.468Z,0.00
2018-07-07T00:13:05.456Z,0.00
2018-07-07T00:14:05.465Z,0.00
2018-07-07T00:15:05.462Z,0.00
2018-07-07T00:16:05.443Z,0.00
2018-07-07T00:17:05.393Z,0.00
2018-07-07T00:18:05.380Z,0.00
2018-07-07T00:19:05.369Z,0.00
2018-07-07T00:20:05.357Z,0.00
2018-07-07T00:21:05.349Z,0.00
2018-07-07T00:22:05.347Z,0.00
2018-07-07T00:23:05.389Z,0.00
2018-07-07T00:24:05.316Z,0.00
2018-07-07T00:25:05.325Z,0.00
2018-07-07T00:26:05.293Z,0.00
2018-07-07T00:27:05.288Z,0.00
2018-07-07T00:28:05.274Z,0.00
2018-07-07T00:29:05.278Z,0.00
2018-07-07T00:30:05.253Z,0.00
2018-07-07T00:31:05.255Z,0.00
2018-07-07T00:32:05.292Z,0.00
2018-07-07T00:33:05.262Z,0.00
2018-07-07T00:34:05.210Z,0.00
2018-07-07T00:35:05.214Z,0.00
2018-07-07T00:36:05.184Z,0.00
2018-07-07T00:37:05.173Z,0.00
2018-07-07T00:38:05.177Z,0.00
2018-07-07T00:39:05.165Z,0.00
2018-07-07T00:40:05.142Z,0.00
2018-07-07T00:41:05.132Z,0.00
2018-07-07T00:42:05.118Z,0.00
2018-07-07T00:43:05.110Z,0.00
2018-07-07T00:44:05.113Z,0.00
2018-07-07T00:45:05.088Z,0.00
2018-07-07T00:46:05.073Z,0.00
2018-07-07T00:47:05.064Z,0.00
2018-07-07T00:48:05.054Z,0.00
2018-07-07T00:49:05.091Z,0.00
2018-07-07T00:50:05.030Z,0.00
2018-07-07T00:51:05.021Z,0.00
2018-07-07T00:52:05.036Z,0.00
2018-07-07T00:53:05.001Z,0.00
2018-07-07T00:54:04.986Z,0.00
2018-07-07T00:55:04.997Z,0.00
2018-07-07T00:56:05.019Z,0.00
2018-07-07T00:57:04.986Z,0.00
2018-07-07T00:58:04.969Z,0.00
2018-07-07T00:59:04.934Z,0.00
2018-07-07T01:00:04.926Z,0.00
2018-07-07T01:01:04.938Z,0.00
2018-07-07T01:02:04.920Z,0.00
2018-07-07T01:03:04.887Z,0.00
2018-07-07T01:04:04.877Z,0.00
2018-07-07T01:05:04.868Z,0.00
2018-07-07T01:06:04.858Z,0.00
2018-07-07T01:07:04.847Z,0.00
2018-07-07T01:08:04.850Z,0.00
2018-07-07T01:09:04.822Z,0.00
2018-07-07T01:10:04.816Z,0.00
2018-07-07T01:11:04.801Z,0.00
2018-07-07T01:12:04.791Z,0.00
2018-07-07T01:13:04.799Z,0.00
2018-07-07T01:14:04.807Z,0.00
2018-07-07T01:15:04.757Z,0.00
2018-07-07T01:16:04.746Z,0.00
2018-07-07T01:17:04.737Z,0.00
2018-07-07T01:18:04.724Z,0.00
2018-07-07T01:19:04.730Z,0.00
2018-07-07T01:20:04.753Z,0.00
2018-07-07T01:21:04.704Z,0.00
2018-07-07T01:22:04.683Z,0.00
2018-07-07T01:23:04.673Z,0.00
2018-07-07T01:24:04.676Z,0.00
2018-07-07T01:25:04.652Z,0.00
2018-07-07T01:26:04.694Z,0.00
2018-07-07T01:27:04.629Z,0.00
2018-07-07T01:28:04.614Z,0.00
2018-07-07T01:29:04.629Z,0.00
2018-07-07T01:30:04.593Z,0.00
2018-07-07T01:31:04.584Z,0.00
2018-07-07T01:32:04.573Z,0.00
2018-07-07T01:33:04.563Z,0.00
2018-07-07T01:34:04.594Z,0.00
2018-07-07T01:35:04.595Z,0.00
2018-07-07T01:36:04.528Z,0.00
2018-07-07T01:37:04.516Z,0.00
2018-07-07T01:38:04.509Z,0.00
2018-07-07T01:39:04.498Z,0.00
2018-07-07T01:40:04.490Z,0.00
2018-07-07T01:41:04.489Z,0.00
2018-07-07T01:42:04.461Z,0.00
2018-07-07T01:43:04.473Z,0.00
2018-07-07T01:44:04.445Z,0.00
2018-07-07T01:45:04.458Z,0.00
2018-07-07T01:46:04.419Z,0.00
2018-07-07T01:47:04.412Z,0.00
2018-07-07T01:48:04.401Z,0.00
2018-07-07T01:49:04.386Z,0.00
2018-07-07T01:50:04.376Z,0.00
2018-07-07T01:51:04.377Z,0.00
2018-07-07T01:52:04.375Z,0.00
2018-07-07T01:53:04.343Z,0.00
2018-07-07T01:54:04.334Z,0.00
2018-07-07T01:55:04.344Z,0.00
2018-07-07T01:56:04.313Z,0.00
2018-07-07T01:57:04.299Z,0.00
2018-07-07T01:58:04.292Z,0.00
2018-07-07T01:59:04.278Z,0.00
2018-07-07T02:00:04.267Z,0.00
2018-07-07T02:01:04.279Z,0.00
2018-07-07T02:02:04.247Z,0.00
2018-07-07T02:03:04.304Z,0.00
2018-07-07T02:04:04.259Z,0.00
2018-07-07T02:05:04.214Z,0.00
2018-07-07T02:06:04.205Z,0.00
2018-07-07T02:07:04.207Z,0.00
2018-07-07T02:08:04.182Z,0.00
2018-07-07T02:09:04.169Z,0.00
2018-07-07T02:10:04.157Z,0.00
2018-07-07T02:11:04.163Z,0.00
2018-07-07T02:12:04.190Z,0.00
2018-07-07T02:13:04.129Z,0.00
2018-07-07T02:14:04.159Z,0.00
2018-07-07T02:15:04.104Z,0.00
2018-07-07T02:16:04.112Z,0.00
2018-07-07T02:17:04.083Z,0.00
2018-07-07T02:18:04.074Z,0.00
2018-07-07T02:19:04.060Z,0.00
2018-07-07T02:20:04.050Z,0.00
2018-07-07T02:21:04.038Z,0.00
2018-07-07T02:22:04.039Z,0.00
2018-07-07T02:23:04.017Z,0.00
2018-07-07T02:24:04.009Z,0.00
2018-07-07T02:25:03.997Z,0.00
2018-07-07T02:26:03.986Z,0.00
2018-07-07T02:27:03.986Z,0.00
2018-07-07T02:28:03.969Z,0.00
2018-07-07T02:29:03.974Z,0.00
2018-07-07T02:30:03.942Z,0.00
2018-07-07T02:31:03.934Z,0.00
2018-07-07T02:32:03.918Z,0.00
2018-07-07T02:33:03.925Z,0.00
2018-07-07T02:34:03.901Z,0.00
2018-07-07T02:35:03.893Z,0.00
2018-07-07T02:36:03.879Z,0.00
2018-07-07T02:37:03.996Z,0.00
2018-07-07T02:38:03.858Z,0.00
2018-07-07T02:39:03.843Z,0.00
2018-07-07T02:40:03.869Z,0.00
2018-07-07T02:41:03.878Z,0.00
2018-07-07T02:42:03.857Z,0.00
2018-07-07T02:43:03.813Z,0.00
2018-07-07T02:44:03.804Z,0.00
2018-07-07T02:45:03.831Z,0.00
2018-07-07T02:46:03.809Z,0.00
2018-07-07T02:47:03.784Z,0.00
2018-07-07T02:48:03.760Z,0.00
2018-07-07T02:49:03.735Z,0.00
2018-07-07T02:50:03.723Z,0.00
2018-07-07T02:51:03.716Z,0.00
2018-07-07T02:52:03.700Z,0.00
2018-07-07T02:53:03.709Z,0.00
2018-07-07T02:54:03.684Z,0.00
2018-07-07T02:55:03.777Z,0.00
2018-07-07T02:56:03.661Z,0.00
2018-07-07T02:57:03.650Z,0.00
2018-07-07T02:58:03.638Z,0.00
2018-07-07T02:59:03.624Z,0.00
2018-07-07T03:00:03.614Z,0.00
2018-07-07T03:01:03.620Z,0.00
2018-07-07T03:02:03.596Z,0.00
2018-07-07T03:03:03.648Z,0.00
2018-07-07T03:04:03.624Z,5.62
2018-07-07T03:05:03.619Z,5.62
2018-07-07T03:06:03.563Z,5.62
2018-07-07T03:07:03.648Z,5.62
2018-07-07T03:08:03.625Z,5.62
2018-07-07T03:09:03.533Z,5.62
2018-07-07T03:10:03.513Z,5.62
2018-07-07T03:11:03.499Z,11.25
2018-07-07T03:12:03.499Z,11.25
2018-07-07T03:13:03.474Z,11.25
2018-07-07T03:14:03.551Z,11.25
2018-07-07T03:15:03.488Z,11.25
2018-07-07T03:16:03.442Z,11.25
2018-07-07T03:17:03.448Z,11.25
2018-07-07T03:18:03.421Z,16.88
2018-07-07T03:19:03.428Z,16.88
2018-07-07T03:20:03.401Z,16.88
2018-07-07T03:21:03.388Z,16.88
2018-07-07T03:22:03.378Z,16.88
2018-07-07T03:23:03.456Z,22.50
2018-07-07T03:24:03.356Z,22.50
2018-07-07T03:25:03.361Z,22.50
2018-07-07T03:26:03.403Z,22.50
2018-07-07T03:27:03.323Z,28.12
2018-07-07T03:28:03.315Z,28.12
2018-07-07T03:29:03.304Z,28.12
2018-07-07T03:30:03.317Z,33.75
2018-07-07T03:31:03.279Z,33.75
2018-07-07T03:32:03.272Z,33.75
2018-07-07T03:33:03.260Z,39.38
2018-07-07T03:34:03.250Z,39.38
2018-07-07T03:35:03.238Z,39.38
2018-07-07T03:36:03.295Z,45.00
2018-07-07T03:37:03.218Z,45.00
2018-07-07T03:38:03.278Z,45.00
2018-07-07T03:39:03.196Z,50.62
2018-07-07T03:40:03.186Z,50.62
2018-07-07T03:41:03.201Z,56.25
2018-07-07T03:42:03.198Z,56.25
2018-07-07T03:43:03.154Z,61.88
2018-07-07T03:44:03.181Z,61.88
2018-07-07T03:45:03.132Z,67.50
2018-07-07T03:46:03.141Z,67.50
2018-07-07T03:47:03.110Z,73.12
2018-07-07T03:48:03.099Z,78.75
2018-07-07T03:49:03.086Z,78.75
2018-07-07T03:50:03.075Z,84.38
2018-07-07T03:51:03.109Z,84.38
2018-07-07T03:52:03.186Z,90.00
2018-07-07T03:53:03.061Z,90.00
2018-07-07T03:54:03.034Z,95.62
2018-07-07T03:55:03.020Z,95.62
2018-07-07T03:56:03.010Z,101.25
2018-07-07T03:57:03.001Z,101.25
2018-07-07T03:58:03.009Z,106.88
2018-07-07T03:59:02.978Z,106.88
2018-07-07T04:00:02.969Z,106.88
2018-07-07T04:01:02.961Z,112.50
2018-07-07T04:02:02.973Z,112.50
2018-07-07T04:03:02.974Z,118.12
2018-07-07T04:04:02.987Z,123.75
2018-07-07T04:05:02.914Z,123.75
2018-07-07T04:06:02.901Z,129.38
2018-07-07T04:07:02.892Z,135.00
2018-07-07T04:08:02.882Z,135.00
2018-07-07T04:09:03.047Z,140.62
2018-07-07T04:10:02.863Z,140.62
2018-07-07T04:11:02.846Z,146.25
2018-07-07T04:12:02.835Z,146.25
2018-07-07T04:13:02.826Z,151.88
2018-07-07T04:14:02.831Z,151.88
2018-07-07T04:15:02.802Z,157.50
2018-07-07T04:16:02.791Z,157.50
2018-07-07T04:17:02.786Z,157.50
2018-07-07T04:18:02.769Z,157.50
2018-07-07T04:19:02.758Z,157.50
2018-07-07T04:20:02.807Z,157.50
2018-07-07T04:21:02.740Z,163.12
2018-07-07T04:22:02.724Z,163.12
2018-07-07T04:23:02.718Z,163.12
2018-07-07T04:24:02.707Z,163.12
2018-07-07T04:25:02.767Z,163.12
2018-07-07T04:26:02.684Z,163.12
2018-07-07T04:27:02.681Z,163.12
2018-07-07T04:28:02.662Z,163.12
2018-07-07T04:29:02.710Z,163.12
2018-07-07T04:30:02.639Z,163.12
2018-07-07T04:31:02.642Z,163.12
2018-07-07T04:32:02.654Z,163.12
2018-07-07T04:33:02.612Z,168.75
2018-07-07T04:34:02.597Z,168.75
2018-07-07T04:35:02.601Z,168.75
2018-07-07T04:36:02.630Z,168.75
2018-07-07T04:37:02.562Z,168.75
2018-07-07T04:38:02.551Z,174.38
2018-07-07T04:39:02.541Z,174.38
2018-07-07T04:40:02.566Z,174.38
2018-07-07T04:41:02.585Z,174.38
2018-07-07T04:42:02.508Z,180.00
2018-07-07T04:43:02.571Z,185.62
2018-07-07T04:44:02.484Z,185.62
2018-07-07T04:45:02.473Z,191.25
2018-07-07T04:46:02.531Z,191.25
2018-07-07T04:47:02.466Z,191.25
2018-07-07T04:48:02.443Z,196.88
2018-07-07T04:49:02.433Z,196.88
2018-07-07T04:50:02.421Z,196.88
2018-07-07T04:51:02.407Z,196.88
2018-07-07T04:52:02.430Z,202.50
2018-07-07T04:53:02.405Z,202.50
2018-07-07T04:54:02.400Z,202.50
2018-07-07T04:55:02.365Z,202.50
2018-07-07T04:56:02.353Z,208.12
2018-07-07T04:57:02.342Z,208.12
2018-07-07T04:58:02.348Z,208.12
2018-07-07T04:59:02.323Z,208.12
2018-07-07T05:00:02.406Z,208.12
2018-07-07T05:01:02.298Z,208.12
2018-07-07T05:02:02.288Z,213.75
2018-07-07T05:03:02.296Z,219.38
2018-07-07T05:04:02.268Z,225.00
2018-07-07T05:05:02.335Z,230.62
2018-07-07T05:06:02.247Z,230.62
2018-07-07T05:07:02.251Z,230.62
2018-07-07T05:08:02.269Z,230.62
2018-07-07T05:09:02.217Z,230.62
2018-07-07T05:10:02.214Z,230.62
2018-07-07T05:11:02.195Z,236.25
2018-07-07T05:12:02.184Z,236.25
2018-07-07T05:13:02.174Z,236.25
2018-07-07T05:14:02.164Z,241.88
2018-07-07T05:15:02.170Z,241.88
2018-07-07T05:16:02.255Z,241.88
2018-07-07T05:17:02.132Z,241.88
2018-07-07T05:18:02.122Z,241.88
2018-07-07T05:19:02.109Z,241.88
2018-07-07T05:20:02.115Z,241.88
2018-07-07T05:21:02.100Z,241.88
2018-07-07T05:22:02.076Z,241.88
2018-07-07T05:23:02.094Z,241.88
2018-07-07T05:24:02.055Z,241.88
2018-07-07T05:25:02.047Z,241.88
2018-07-07T05:26:02.047Z,241.88
2018-07-07T05:27:02.032Z,241.88
2018-07-07T05:28:02.016Z,247.50
2018-07-07T05:29:02.003Z,253.12
2018-07-07T05:30:01.992Z,264.38
2018-07-07T05:31:02.002Z,270.00
2018-07-07T05:32:02.055Z,275.62
2018-07-07T05:33:01.968Z,281.25
2018-07-07T05:34:01.950Z,286.88
2018-07-07T05:35:01.942Z,286.88
2018-07-07T05:36:01.982Z,298.12
2018-07-07T05:37:01.972Z,309.38
2018-07-07T05:38:01.931Z,315.00
2018-07-07T05:39:01.956Z,320.62
2018-07-07T05:40:01.889Z,326.25
2018-07-07T05:41:01.982Z,331.88
2018-07-07T05:42:01.947Z,343.12
2018-07-07T05:43:01.857Z,348.75
2018-07-07T05:44:01.966Z,343.12
2018-07-07T05:45:01.833Z,331.88
2018-07-07T05:46:01.822Z,331.88
2018-07-07T05:47:01.873Z,326.25
2018-07-07T05:48:01.813Z,320.62
2018-07-07T05:49:01.790Z,315.00
2018-07-07T05:50:01.857Z,303.75
2018-07-07T05:51:01.765Z,292.50
2018-07-07T05:52:01.751Z,292.50
2018-07-07T05:53:01.759Z,292.50
2018-07-07T05:54:01.794Z,292.50
2018-07-07T05:55:01.719Z,292.50
2018-07-07T05:56:01.709Z,298.12
2018-07-07T05:57:01.699Z,298.12
2018-07-07T05:58:01.815Z,303.75
2018-07-07T05:59:01.688Z,303.75
2018-07-07T06:00:01.665Z,309.38
2018-07-07T06:01:01.654Z,309.38
2018-07-07T06:02:01.639Z,315.00
2018-07-07T06:03:01.633Z,326.25
2018-07-07T06:04:01.713Z,337.50
2018-07-07T06:05:01.658Z,354.38
2018-07-07T06:06:01.613Z,365.62
2018-07-07T06:07:01.589Z,371.25
2018-07-07T06:08:01.654Z,365.62
2018-07-07T06:09:01.568Z,354.38
2018-07-07T06:10:01.658Z,348.75
2018-07-07T06:11:01.543Z,343.12
2018-07-07T06:12:01.533Z,337.50
2018-07-07T06:13:01.523Z,337.50
2018-07-07T06:14:01.507Z,337.50
2018-07-07T06:15:01.497Z,343.12
2018-07-07T06:16:01.501Z,343.12
2018-07-07T06:17:01.615Z,348.75
2018-07-07T06:18:01.503Z,360.00
2018-07-07T06:19:01.456Z,365.62
2018-07-07T06:20:01.445Z,388.12
2018-07-07T06:21:01.452Z,405.00
2018-07-07T06:22:01.422Z,433.12
2018-07-07T06:23:01.416Z,517.50
2018-07-07T06:24:01.398Z,613.12
2018-07-07T06:25:01.391Z,663.75
2018-07-07T06:26:01.380Z,686.25
2018-07-07T06:27:01.461Z,680.62
2018-07-07T06:28:01.358Z,675.00
2018-07-07T06:29:01.348Z,663.75
2018-07-07T06:30:01.338Z,652.50
2018-07-07T06:31:01.326Z,658.12
2018-07-07T06:32:01.352Z,646.88
2018-07-07T06:33:01.483Z,641.25
2018-07-07T06:34:01.391Z,635.62
2018-07-07T06:35:01.283Z,635.62
2018-07-07T06:36:01.325Z,652.50
2018-07-07T06:37:01.262Z,652.50
2018-07-07T06:38:01.263Z,669.38
2018-07-07T06:39:01.349Z,680.62
2018-07-07T06:40:01.315Z,680.62
2018-07-07T06:41:01.219Z,680.62
2018-07-07T06:42:01.219Z,691.88
2018-07-07T06:43:01.359Z,691.88
2018-07-07T06:44:01.278Z,691.88
2018-07-07T06:45:01.177Z,708.75
2018-07-07T06:46:01.165Z,703.12
2018-07-07T06:47:01.151Z,691.88
2018-07-07T06:48:01.162Z,697.50
2018-07-07T06:49:01.132Z,703.12
2018-07-07T06:50:01.119Z,714.38
2018-07-07T06:51:01.113Z,714.38
2018-07-07T06:52:01.096Z,714.38
2018-07-07T06:53:01.090Z,714.38
2018-07-07T06:54:01.224Z,725.62
2018-07-07T06:55:01.065Z,731.25
2018-07-07T06:56:01.055Z,742.50
2018-07-07T06:57:01.043Z,748.12
2018-07-07T06:58:01.156Z,759.38
2018-07-07T06:59:01.038Z,753.75
2018-07-07T07:00:01.195Z,748.12
2018-07-07T07:01:01.002Z,748.12
2018-07-07T07:02:00.988Z,753.75
2018-07-07T07:03:01.095Z,770.62
2018-07-07T07:04:00.971Z,798.75
2018-07-07T07:05:01.072Z,832.50
2018-07-07T07:06:00.964Z,866.25
2018-07-07T07:07:00.934Z,922.50
2018-07-07T07:08:00.925Z,956.25
2018-07-07T07:09:00.931Z,1158.75
2018-07-07T07:10:00.903Z,1040.62
2018-07-07T07:11:01.048Z,1636.88
2018-07-07T07:12:01.025Z,1023.75
2018-07-07T07:13:00.991Z,1237.50
2018-07-07T07:14:00.935Z,1698.75
2018-07-07T07:15:00.983Z,1501.88
2018-07-07T07:16:00.838Z,1170.00
2018-07-07T07:17:00.980Z,2148.75
2018-07-07T07:18:00.817Z,2171.25
2018-07-07T07:19:00.806Z,1479.38
2018-07-07T07:20:00.807Z,1845.00
2018-07-07T07:21:00.783Z,1310.62
2018-07-07T07:22:00.785Z,2205.00
2018-07-07T07:23:00.774Z,1788.75
2018-07-07T07:24:00.766Z,1800.00
2018-07-07T07:25:00.742Z,1248.75
2018-07-07T07:26:00.773Z,1350.00
2018-07-07T07:27:00.721Z,1237.50
2018-07-07T07:28:00.711Z,1845.00
2018-07-07T07:29:00.740Z,2531.25
2018-07-07T07:30:00.687Z,1839.38
2018-07-07T07:31:00.733Z,1378.12
2018-07-07T07:32:00.666Z,1406.25
2018-07-07T07:33:00.709Z,1980.00
2018-07-07T07:34:00.759Z,2649.38
2018-07-07T07:35:00.650Z,2255.62
2018-07-07T07:36:00.654Z,1856.25
2018-07-07T07:37:00.634Z,2604.38
2018-07-07T07:38:00.603Z,2469.38
2018-07-07T07:39:00.659Z,2424.38
2018-07-07T07:40:00.583Z,2424.38
2018-07-07T07:41:00.579Z,2345.62
2018-07-07T07:42:00.709Z,2373.75
2018-07-07T07:43:00.645Z,1918.12
2018-07-07T07:44:00.538Z,1788.75
2018-07-07T07:45:00.540Z,2407.50
2018-07-07T07:46:00.518Z,2210.62
2018-07-07T07:47:00.565Z,2160.00
2018-07-07T07:48:00.512Z,2379.38
2018-07-07T07:49:00.558Z,2188.12
2018-07-07T07:50:00.474Z,1462.50
2018-07-07T07:51:00.489Z,2604.38
2018-07-07T07:52:00.477Z,1423.12
2018-07-07T07:53:00.441Z,2846.25
2018-07-07T07:54:00.430Z,2098.12
2018-07-07T07:55:00.565Z,2536.88
2018-07-07T07:56:00.415Z,1620.00
2018-07-07T07:57:00.546Z,2840.62
2018-07-07T07:58:00.402Z,1912.50
2018-07-07T07:59:00.448Z,1912.50
2018-07-07T08:00:00.367Z,1968.75
2018-07-07T08:01:00.373Z,2486.25
2018-07-07T08:02:00.346Z,2964.38
2018-07-07T08:03:00.353Z,2188.12
2018-07-07T08:04:00.343Z,2716.88
2018-07-07T08:05:00.435Z,2199.38
2018-07-07T08:06:00.305Z,2306.25
2018-07-07T08:07:00.425Z,2244.38
2018-07-07T08:08:00.397Z,1884.38
2018-07-07T08:09:00.276Z,1743.75
2018-07-07T08:10:00.375Z,1485.00
2018-07-07T08:11:00.253Z,1653.75
2018-07-07T08:12:00.244Z,2188.12
2018-07-07T08:13:00.406Z,1890.00
2018-07-07T08:14:00.475Z,1681.88
2018-07-07T08:15:00.439Z,2075.62
2018-07-07T08:16:00.199Z,2295.00
2018-07-07T08:17:00.188Z,2700.00
2018-07-07T08:18:00.312Z,1833.75
2018-07-07T08:19:00.187Z,3453.75
2018-07-07T08:20:00.156Z,3110.62
2018-07-07T08:21:00.146Z,2649.38
2018-07-07T08:22:00.139Z,2244.38
2018-07-07T08:23:00.218Z,2041.88
2018-07-07T08:24:00.114Z,2598.75
2018-07-07T08:25:00.119Z,2992.50
2018-07-07T08:26:00.211Z,2913.75
2018-07-07T08:27:00.104Z,3324.38
2018-07-07T08:28:00.075Z,2115.00
2018-07-07T08:29:00.065Z,3172.50
2018-07-07T08:30:00.062Z,3296.25
2018-07-07T08:31:00.044Z,3453.75
2018-07-07T08:32:00.033Z,2700.00
2018-07-07T08:33:00.132Z,1918.12
2018-07-07T08:34:00.118Z,3245.62
2018-07-07T08:35:00.002Z,3245.62
2018-07-07T08:35:59.991Z,3082.50
2018-07-07T08:37:00.056Z,3026.25
2018-07-07T08:38:00.011Z,2936.25
2018-07-07T08:38:59.960Z,2981.25
2018-07-07T08:39:59.951Z,3065.62
2018-07-07T08:40:59.943Z,3380.62
2018-07-07T08:42:00.046Z,3453.75
2018-07-07T08:42:59.919Z,2986.88
2018-07-07T08:43:59.921Z,2930.62
2018-07-07T08:44:59.898Z,3313.12
2018-07-07T08:46:00.060Z,3566.25
2018-07-07T08:46:59.876Z,3526.88
2018-07-07T08:47:59.867Z,3166.88
2018-07-07T08:48:59.967Z,2761.88
2018-07-07T08:49:59.911Z,2385.00
2018-07-07T08:50:59.840Z,2778.75
2018-07-07T08:51:59.857Z,3594.38
2018-07-07T08:52:59.818Z,1366.88
2018-07-07T08:53:59.804Z,3369.38
2018-07-07T08:54:59.811Z,1344.38
2018-07-07T08:55:59.786Z,3881.25
2018-07-07T08:56:59.771Z,3701.25
2018-07-07T08:57:59.762Z,3701.25
2018-07-07T08:58:59.758Z,1158.75
2018-07-07T08:59:59.767Z,2615.62
2018-07-07T09:00:59.734Z,1631.25
2018-07-07T09:01:59.722Z,2036.25
2018-07-07T09:02:59.846Z,3796.88
2018-07-07T09:03:59.704Z,3543.75
2018-07-07T09:04:59.690Z,3616.88
2018-07-07T09:05:59.698Z,4005.00
2018-07-07T09:06:59.671Z,3127.50
2018-07-07T09:07:59.660Z,2193.75
2018-07-07T09:08:59.652Z,4314.38
2018-07-07T09:09:59.640Z,2660.62
2018-07-07T09:10:59.645Z,3178.12
2018-07-07T09:11:59.703Z,2694.38
2018-07-07T09:12:59.610Z,3425.62
2018-07-07T09:13:59.699Z,3802.50
2018-07-07T09:14:59.588Z,1980.00
2018-07-07T09:15:59.595Z,1788.75
2018-07-07T09:16:59.566Z,1231.88
2018-07-07T09:17:59.687Z,4308.75
2018-07-07T09:18:59.545Z,4320.00
2018-07-07T09:19:59.536Z,4021.88
2018-07-07T09:20:59.546Z,3965.62
2018-07-07T09:21:59.517Z,1552.50
2018-07-07T09:22:59.507Z,826.88
2018-07-07T09:23:59.495Z,1473.75
2018-07-07T09:24:59.485Z,3847.50
2018-07-07T09:25:59.473Z,3780.00
2018-07-07T09:26:59.481Z,3954.38
2018-07-07T09:27:59.454Z,3937.50
2018-07-07T09:28:59.441Z,4190.62
2018-07-07T09:29:59.431Z,1777.50
2018-07-07T09:30:59.506Z,2643.75
2018-07-07T09:31:59.426Z,3931.88
2018-07-07T09:32:59.403Z,2913.75
2018-07-07T09:33:59.438Z,3718.12
2018-07-07T09:34:59.379Z,3830.62
2018-07-07T09:35:59.371Z,3948.75
2018-07-07T09:36:59.358Z,2446.88
2018-07-07T09:37:59.362Z,4061.25
2018-07-07T09:38:59.338Z,4095.00
2018-07-07T09:39:59.327Z,4213.12
2018-07-07T09:40:59.317Z,4128.75
2018-07-07T09:41:59.349Z,4100.62
2018-07-07T09:42:59.300Z,4061.25
2018-07-07T09:43:59.342Z,4027.50
2018-07-07T09:44:59.283Z,4010.62
2018-07-07T09:45:59.269Z,3768.75
2018-07-07T09:46:59.418Z,3538.12
2018-07-07T09:47:59.264Z,3763.12
2018-07-07T09:48:59.282Z,3915.00
2018-07-07T09:49:59.229Z,3566.25
2018-07-07T09:50:59.229Z,3150.00
2018-07-07T09:51:59.205Z,3436.88
2018-07-07T09:52:59.197Z,4010.62
2018-07-07T09:53:59.280Z,4185.00
2018-07-07T09:54:59.194Z,4033.12
2018-07-07T09:55:59.169Z,3611.25
2018-07-07T09:56:59.161Z,3476.25
2018-07-07T09:57:59.148Z,3926.25
2018-07-07T09:58:59.311Z,4218.75
2018-07-07T09:59:59.127Z,4241.25
2018-07-07T10:00:59.134Z,4196.25
2018-07-07T10:01:59.271Z,4185.00
2018-07-07T10:02:59.099Z,4185.00
2018-07-07T10:03:59.185Z,4241.25
2018-07-07T10:04:59.075Z,4213.12
2018-07-07T10:05:59.219Z,4106.25
2018-07-07T10:06:59.060Z,4134.38
2018-07-07T10:07:59.046Z,4050.00
2018-07-07T10:08:59.040Z,2148.75
2018-07-07T10:09:59.026Z,4500.00
2018-07-07T10:10:59.018Z,4590.00
2018-07-07T10:11:59.025Z,3706.88
2018-07-07T10:12:59.017Z,1248.75
2018-07-07T10:13:59.078Z,4269.38
2018-07-07T10:14:58.975Z,4196.25
2018-07-07T10:15:58.966Z,4263.75
2018-07-07T10:16:59.043Z,4438.12
2018-07-07T10:17:59.023Z,1260.00
2018-07-07T10:18:59.058Z,4657.50
2018-07-07T10:19:58.925Z,4421.25
2018-07-07T10:20:59.025Z,3999.38
2018-07-07T10:21:58.911Z,4404.38
2018-07-07T10:22:58.976Z,4415.62
2018-07-07T10:23:58.898Z,4123.12
2018-07-07T10:24:58.895Z,3217.50
2018-07-07T10:25:58.983Z,1693.12
2018-07-07T10:26:58.855Z,4528.12
2018-07-07T10:27:58.842Z,4331.25
2018-07-07T10:28:58.867Z,4246.88
2018-07-07T10:29:58.824Z,4303.12
2018-07-07T10:30:58.812Z,4314.38
2018-07-07T10:31:58.806Z,4291.88
2018-07-07T10:32:58.921Z,3290.62
2018-07-07T10:33:58.787Z,4393.12
2018-07-07T10:34:58.774Z,4303.12
2018-07-07T10:35:58.767Z,4303.12
2018-07-07T10:36:58.759Z,4466.25
2018-07-07T10:37:58.776Z,4196.25
2018-07-07T10:38:58.739Z,4179.38
2018-07-07T10:39:58.741Z,4438.12
2018-07-07T10:40:58.833Z,4432.50
2018-07-07T10:41:58.706Z,4230.00
2018-07-07T10:42:58.694Z,3993.75
2018-07-07T10:43:58.703Z,4207.50
2018-07-07T10:44:58.678Z,4331.25
2018-07-07T10:45:58.825Z,4156.88
2018-07-07T10:46:58.658Z,4173.75
2018-07-07T10:47:58.647Z,4280.62
2018-07-07T10:48:58.807Z,4263.75
2018-07-07T10:49:58.639Z,4269.38
2018-07-07T10:50:58.634Z,4291.88
2018-07-07T10:51:58.608Z,4179.38
2018-07-07T10:52:58.600Z,4027.50
2018-07-07T10:53:58.590Z,3847.50
2018-07-07T10:54:58.580Z,4055.62
2018-07-07T10:55:58.566Z,4336.88
2018-07-07T10:56:58.568Z,4269.38
2018-07-07T10:57:58.553Z,4241.25
2018-07-07T10:58:58.680Z,4353.75
2018-07-07T10:59:58.671Z,4381.88
2018-07-07T11:00:58.520Z,4528.12
2018-07-07T11:01:58.528Z,4466.25
2018-07-07T11:02:58.500Z,4123.12
2018-07-07T11:03:58.487Z,4095.00
2018-07-07T11:04:58.483Z,4381.88
2018-07-07T11:05:58.475Z,4415.62
2018-07-07T11:06:58.461Z,4342.50
2018-07-07T11:07:58.474Z,4140.00
2018-07-07T11:08:58.449Z,4263.75
2018-07-07T11:09:58.433Z,4297.50
2018-07-07T11:10:58.428Z,3735.00
2018-07-07T11:11:58.502Z,3746.25
2018-07-07T11:12:58.405Z,4235.62
2018-07-07T11:13:58.406Z,4460.62
2018-07-07T11:14:58.381Z,4263.75
2018-07-07T11:15:58.377Z,4061.25
2018-07-07T11:16:58.386Z,4190.62
2018-07-07T11:17:58.354Z,4393.12
2018-07-07T11:18:58.345Z,4286.25
2018-07-07T11:19:58.353Z,4432.50
2018-07-07T11:20:58.403Z,4494.38
2018-07-07T11:21:58.318Z,4398.75
2018-07-07T11:22:58.318Z,4561.88
2018-07-07T11:23:58.301Z,4657.50
2018-07-07T11:24:58.311Z,4083.75
2018-07-07T11:25:58.275Z,4089.38
2018-07-07T11:26:58.266Z,4117.50
2018-07-07T11:27:58.255Z,3678.75
2018-07-07T11:28:58.248Z,3656.25
2018-07-07T11:29:58.239Z,4168.12
2018-07-07T11:30:58.267Z,4196.25
2018-07-07T11:31:58.215Z,4308.75
2018-07-07T11:32:58.207Z,4398.75
2018-07-07T11:33:58.306Z,4016.25
2018-07-07T11:34:58.246Z,4005.00
2018-07-07T11:35:58.183Z,4449.38
2018-07-07T11:36:58.263Z,4612.50
2018-07-07T11:37:58.299Z,4438.12
2018-07-07T11:38:58.269Z,4252.50
2018-07-07T11:39:58.189Z,4297.50
2018-07-07T11:40:58.167Z,4398.75
2018-07-07T11:41:58.139Z,4370.62
2018-07-07T11:42:58.108Z,4410.00
2018-07-07T11:43:58.102Z,4460.62
2018-07-07T11:44:58.158Z,4297.50
2018-07-07T11:45:58.081Z,4179.38
2018-07-07T11:46:58.073Z,4241.25
2018-07-07T11:47:58.136Z,4252.50
2018-07-07T11:48:58.054Z,4320.00
2018-07-07T11:49:58.090Z,4365.00
2018-07-07T11:50:58.102Z,3982.50
2018-07-07T11:51:58.089Z,4117.50
2018-07-07T11:52:58.013Z,4398.75
2018-07-07T11:53:58.036Z,4370.62
2018-07-07T11:54:58.028Z,4308.75
2018-07-07T11:55:58.038Z,4297.50
2018-07-07T11:56:57.987Z,4438.12
2018-07-07T11:57:58.063Z,4291.88
2018-07-07T11:58:57.953Z,4263.75
2018-07-07T11:59:57.942Z,4235.62
2018-07-07T12:00:57.932Z,4162.50
2018-07-07T12:01:58.016Z,4134.38
2018-07-07T12:02:57.912Z,4173.75
2018-07-07T12:03:57.906Z,4207.50
2018-07-07T12:04:57.897Z,4269.38
2018-07-07T12:05:57.883Z,4387.50
2018-07-07T12:06:57.959Z,4426.88
2018-07-07T12:08:13.315Z,4348.12
2018-07-07T12:08:57.857Z,4134.38
2018-07-07T12:09:57.882Z,4365.00
2018-07-07T12:10:57.881Z,4381.88
2018-07-07T12:11:57.904Z,4336.88
2018-07-07T12:12:57.817Z,4224.38
2018-07-07T12:13:57.831Z,4173.75
2018-07-07T12:14:57.795Z,4010.62
2018-07-07T12:15:57.788Z,4314.38
2018-07-07T12:16:57.781Z,4353.75
2018-07-07T12:17:57.853Z,4021.88
2018-07-07T12:18:57.759Z,3841.88
2018-07-07T12:19:57.868Z,3971.25
2018-07-07T12:20:57.845Z,2818.12
2018-07-07T12:21:57.728Z,4156.88
2018-07-07T12:22:57.720Z,4005.00
2018-07-07T12:23:57.705Z,4044.38
2018-07-07T12:24:57.713Z,4224.38
2018-07-07T12:25:57.702Z,4258.12
2018-07-07T12:26:57.763Z,4342.50
2018-07-07T12:27:57.671Z,4263.75
2018-07-07T12:28:57.658Z,4111.88
2018-07-07T12:29:57.662Z,4168.12
2018-07-07T12:30:57.662Z,4201.88